createdAt,value
2023-03-14T00:08:15.312Z,5.40
2023-03-14T00:10:45.089Z,5.30
2023-03-14T00:13:14.306Z,5.80
2023-03-14T00:15:42.670Z,5.50
2023-03-14T00:18:11.200Z,5.80
2023-03-14T00:20:39.571Z,5.40
2023-03-14T00:23:08.716Z,5.90
2023-03-14T00:25:37.075Z,5.50
2023-03-14T00:28:05.389Z,5.60
2023-03-14T00:30:34.538Z,5.70
2023-03-14T00:33:02.683Z,5.50
2023-03-14T00:35:30.824Z,5.90
2023-03-14T00:38:00.126Z,5.40
2023-03-14T00:40:28.308Z,5.30
2023-03-14T00:42:57.126Z,5.20
2023-03-14T00:45:25.605Z,5.90
2023-03-14T00:47:54.854Z,5.60
2023-03-14T00:50:23.156Z,5.70
2023-03-14T00:52:51.356Z,5.80
2023-03-14T00:55:20.006Z,5.50
2023-03-14T00:57:48.412Z,5.80
2023-03-14T01:00:17.291Z,6.10
2023-03-14T01:02:46.049Z,5.90
2023-03-14T01:07:47.299Z,5.90
2023-03-14T01:10:15.468Z,6.00
2023-03-14T01:12:55.272Z,6.30
2023-03-14T01:15:23.548Z,5.30
2023-03-14T01:17:51.909Z,6.40
2023-03-14T01:20:25.238Z,5.60
2023-03-14T01:22:56.711Z,6.40
2023-03-14T01:25:24.996Z,6.30
2023-03-14T01:27:54.505Z,5.60
2023-03-14T01:30:22.949Z,5.40
2023-03-14T01:32:51.658Z,6.10
2023-03-14T01:35:20.837Z,5.40
2023-03-14T01:37:49.069Z,6.60
2023-03-14T01:40:20.322Z,6.00
2023-03-14T01:42:56.203Z,5.40
2023-03-14T01:45:56.144Z,5.60
2023-03-14T01:48:24.988Z,5.60
2023-03-14T01:50:53.460Z,7.00
2023-03-14T01:53:22.540Z,6.00
2023-03-14T01:55:51.771Z,5.80
2023-03-14T01:58:21.222Z,6.50
2023-03-14T02:00:49.731Z,5.60
2023-03-14T02:03:19.903Z,6.50
2023-03-14T02:05:49.146Z,6.00
2023-03-14T02:08:21.451Z,5.90
2023-03-14T02:10:55.616Z,6.00
2023-03-14T02:13:36.956Z,6.00
2023-03-14T02:16:28.235Z,6.30
2023-03-14T02:19:21.975Z,6.50
2023-03-14T02:22:21.309Z,5.60
2023-03-14T02:25:26.018Z,6.00
2023-03-14T02:27:54.335Z,5.40
2023-03-14T02:30:25.934Z,5.70
2023-03-14T02:33:06.488Z,6.00
2023-03-14T02:35:43.948Z,4.80
2023-03-14T02:38:34.421Z,5.20
2023-03-14T02:41:03.826Z,5.40
2023-03-14T02:43:36.006Z,6.10
2023-03-14T02:46:05.928Z,4.70
2023-03-14T02:48:37.470Z,5.80
2023-03-14T02:51:06.472Z,5.40
2023-03-14T02:53:35.802Z,5.50
2023-03-14T02:56:08.560Z,5.40
2023-03-14T02:58:38.681Z,5.80
2023-03-14T03:01:14.183Z,5.80
2023-03-14T03:03:42.493Z,5.30
2023-03-14T03:06:10.932Z,5.40
2023-03-14T03:08:39.530Z,5.40
2023-03-14T03:11:08.050Z,5.90
2023-03-14T03:13:36.688Z,5.70
2023-03-14T03:16:06.265Z,5.30
2023-03-14T03:18:36.208Z,5.70
2023-03-14T03:21:05.728Z,5.90
2023-03-14T03:23:38.772Z,5.00
2023-03-14T03:26:07.529Z,5.90
2023-03-14T03:28:35.910Z,5.70
2023-03-14T03:31:09.515Z,5.90
2023-03-14T03:33:38.701Z,6.10
2023-03-14T03:36:07.611Z,6.50
2023-03-14T03:38:38.235Z,6.00
2023-03-14T03:41:08.789Z,6.80
2023-03-14T03:43:38.443Z,6.40
2023-03-14T03:46:08.102Z,7.60
2023-03-14T03:48:36.942Z,7.70
2023-03-14T03:51:06.712Z,7.10
2023-03-14T03:53:41.427Z,6.30
2023-03-14T03:56:11.783Z,5.90
2023-03-14T03:58:40.153Z,6.00
2023-03-14T04:01:09.245Z,5.70
2023-03-14T04:03:40.092Z,5.40
2023-03-14T04:06:13.282Z,6.40
2023-03-14T04:08:44.756Z,5.90
2023-03-14T04:11:51.220Z,5.70
2023-03-14T04:14:24.179Z,5.50
2023-03-14T04:17:08.964Z,5.30
2023-03-14T04:19:38.908Z,5.70
2023-03-14T04:22:07.559Z,5.60
2023-03-14T04:24:42.612Z,6.40
2023-03-14T04:27:10.788Z,6.10
2023-03-14T04:29:40.327Z,5.40
2023-03-14T04:32:08.618Z,5.60
2023-03-14T04:34:38.927Z,5.50
2023-03-14T04:37:07.398Z,5.30
2023-03-14T04:39:40.307Z,6.00
2023-03-14T04:42:28.700Z,5.20
2023-03-14T04:44:57.016Z,5.10
2023-03-14T04:47:27.402Z,5.60
2023-03-14T04:49:57.826Z,5.30
2023-03-14T04:52:27.919Z,5.10
2023-03-14T04:54:56.364Z,5.70
2023-03-14T04:57:26.607Z,6.80
2023-03-14T04:59:55.126Z,5.80
2023-03-14T05:02:42.026Z,6.30
2023-03-14T05:05:40.739Z,5.90
2023-03-14T05:08:27.631Z,5.50
2023-03-14T05:11:14.472Z,6.00
2023-03-14T05:13:58.542Z,6.10
2023-03-14T05:16:45.052Z,5.30
2023-03-14T05:19:29.080Z,6.10
2023-03-14T05:22:20.300Z,5.90
2023-03-14T05:25:08.028Z,6.10
2023-03-14T05:27:56.095Z,5.10
2023-03-14T05:30:41.067Z,5.50
2023-03-14T05:33:35.476Z,5.10
2023-03-14T05:36:30.132Z,5.10
2023-03-14T05:39:18.610Z,5.30
2023-03-14T05:42:25.606Z,5.20
2023-03-14T05:45:14.012Z,4.90
2023-03-14T05:48:15.523Z,4.70
2023-03-14T05:51:03.377Z,5.10
2023-03-14T05:53:50.062Z,4.90
2023-03-14T05:56:35.314Z,5.50
2023-03-14T05:59:11.455Z,4.80
2023-03-14T06:01:55.612Z,5.00
2023-03-14T06:04:29.747Z,5.30
2023-03-14T06:07:01.395Z,4.80
2023-03-14T06:09:29.794Z,4.90
2023-03-14T06:12:00.343Z,5.00
2023-03-14T06:14:29.906Z,4.80
2023-03-14T06:17:00.152Z,5.00
2023-03-14T06:19:29.568Z,4.50
2023-03-14T06:21:58.272Z,5.20
2023-03-14T06:24:34.039Z,5.60
2023-03-14T06:27:22.169Z,5.30
2023-03-14T06:29:53.111Z,4.60
2023-03-14T06:32:21.768Z,4.80
2023-03-14T06:34:51.992Z,4.70
2023-03-14T06:37:21.228Z,4.90
2023-03-14T06:39:49.826Z,4.40
2023-03-14T06:42:32.455Z,4.70
2023-03-14T06:45:01.049Z,4.60
2023-03-14T06:47:29.454Z,5.30
2023-03-14T06:49:58.146Z,5.10
2023-03-14T06:52:28.853Z,5.30
2023-03-14T06:54:57.375Z,4.80
2023-03-14T06:57:25.980Z,5.20
2023-03-14T06:59:58.678Z,4.70
2023-03-14T07:02:39.816Z,4.80
2023-03-14T07:05:13.659Z,5.30
2023-03-14T07:07:42.026Z,4.90
2023-03-14T07:10:10.923Z,4.80
2023-03-14T07:12:42.337Z,4.60
2023-03-14T07:15:18.579Z,4.40
2023-03-14T07:17:49.438Z,4.30
2023-03-14T07:20:20.146Z,4.60
2023-03-14T07:22:52.069Z,4.80
2023-03-14T07:25:24.025Z,5.20
2023-03-14T07:27:53.648Z,5.30
2023-03-14T07:30:22.855Z,5.70
2023-03-14T07:32:52.909Z,5.50
2023-03-14T07:35:24.322Z,5.70
2023-03-14T07:37:52.576Z,5.40
2023-03-14T07:40:23.933Z,4.80
2023-03-14T07:42:56.258Z,5.10
2023-03-14T07:45:43.130Z,5.80
2023-03-14T07:48:13.122Z,5.40
2023-03-14T07:50:41.462Z,4.60
2023-03-14T07:53:10.606Z,5.30
2023-03-14T07:55:38.935Z,5.00
2023-03-14T07:58:11.081Z,4.90
2023-03-14T08:00:41.029Z,5.40
2023-03-14T08:03:09.396Z,5.60
2023-03-14T08:05:38.117Z,5.30
2023-03-14T08:08:06.417Z,5.10
2023-03-14T08:10:40.791Z,4.90
2023-03-14T08:13:09.823Z,5.00
2023-03-14T08:15:38.194Z,5.10
2023-03-14T08:18:10.672Z,5.30
2023-03-14T08:20:39.624Z,4.80
2023-03-14T08:23:07.887Z,5.70
2023-03-14T08:25:36.127Z,5.30
2023-03-14T08:28:05.311Z,5.00
2023-03-14T08:30:34.575Z,5.00
2023-03-14T08:33:03.147Z,4.80
2023-03-14T08:35:31.410Z,5.10
2023-03-14T08:38:00.660Z,5.10
2023-03-14T08:40:29.222Z,5.00
2023-03-14T08:43:00.594Z,5.20
2023-03-14T08:45:29.452Z,5.40
2023-03-14T08:47:58.849Z,5.50
2023-03-14T08:50:27.009Z,4.60
2023-03-14T08:52:55.442Z,5.00
2023-03-14T08:55:23.700Z,6.10
2023-03-14T08:57:52.563Z,5.20
2023-03-14T09:00:28.310Z,5.10
2023-03-14T09:02:57.328Z,5.20
2023-03-14T09:05:25.681Z,5.00
2023-03-14T09:07:57.039Z,4.80
2023-03-14T09:10:25.498Z,5.20
2023-03-14T09:12:53.681Z,4.90
2023-03-14T09:15:21.975Z,5.00
2023-03-14T09:17:50.670Z,5.30
2023-03-14T09:20:22.685Z,4.50
2023-03-14T09:22:51.495Z,4.70
2023-03-14T09:25:20.044Z,5.00
2023-03-14T09:27:48.537Z,5.70
2023-03-14T09:30:18.522Z,5.70
2023-03-14T09:32:47.056Z,5.00
2023-03-14T09:35:18.262Z,4.90
2023-03-14T09:37:46.446Z,5.30
2023-03-14T09:40:18.053Z,5.00
2023-03-14T09:42:49.773Z,4.80
2023-03-14T09:45:26.098Z,4.60
2023-03-14T09:47:59.503Z,4.70
2023-03-14T09:50:39.033Z,5.20
2023-03-14T09:53:13.176Z,4.80
2023-03-14T09:55:43.272Z,4.80
2023-03-14T09:58:26.015Z,4.30
2023-03-14T10:00:57.073Z,4.70
2023-03-14T10:03:35.142Z,4.80
2023-03-14T10:06:03.439Z,5.10
2023-03-14T10:08:32.903Z,4.30
2023-03-14T10:11:02.047Z,5.20
2023-03-14T10:13:32.868Z,4.20
2023-03-14T10:16:02.081Z,5.00
2023-03-14T10:18:35.870Z,4.60
2023-03-14T10:21:23.693Z,4.50
2023-03-14T10:23:52.115Z,4.50
2023-03-14T10:26:30.446Z,4.60
2023-03-14T10:29:12.517Z,4.80
2023-03-14T10:32:04.662Z,3.80
2023-03-14T10:34:39.742Z,4.60
2023-03-14T10:37:22.419Z,4.60
2023-03-14T10:39:52.855Z,4.10
2023-03-14T10:42:35.069Z,4.40
2023-03-14T10:45:05.726Z,4.50
2023-03-14T10:47:36.440Z,3.80
2023-03-14T10:50:24.835Z,3.90
2023-03-14T10:53:02.874Z,4.10
2023-03-14T10:55:43.466Z,4.80
2023-03-14T10:58:25.571Z,4.10
2023-03-14T11:01:30.950Z,4.00
2023-03-14T11:04:03.837Z,3.80
2023-03-14T11:06:45.539Z,3.70
2023-03-14T11:09:37.105Z,4.00
2023-03-14T11:12:26.504Z,4.50
2023-03-14T11:14:57.340Z,3.50
2023-03-14T11:17:32.544Z,3.40
2023-03-14T11:20:22.956Z,3.60
2023-03-14T11:23:09.861Z,3.20
2023-03-14T11:26:19.847Z,3.10
2023-03-14T11:28:52.269Z,3.30
2023-03-14T11:31:24.386Z,2.90
2023-03-14T11:34:11.318Z,3.30
2023-03-14T11:36:43.036Z,2.70
2023-03-14T11:39:15.245Z,2.90
2023-03-14T11:41:52.324Z,3.40
2023-03-14T11:44:21.794Z,3.00
2023-03-14T11:47:01.118Z,2.90
2023-03-14T11:49:29.967Z,2.80
2023-03-14T11:52:19.003Z,3.00
2023-03-14T11:55:21.700Z,3.00
2023-03-14T11:57:49.854Z,3.10
2023-03-14T12:00:25.040Z,2.70
2023-03-14T12:03:08.334Z,2.70
2023-03-14T12:05:54.599Z,2.50
2023-03-14T12:08:43.391Z,2.30
2023-03-14T12:11:29.582Z,2.50
2023-03-14T12:13:57.825Z,2.30
2023-03-14T12:16:25.915Z,2.80
2023-03-14T12:18:54.650Z,2.40
2023-03-14T12:21:29.453Z,2.60
2023-03-14T12:23:58.569Z,2.40
2023-03-14T12:26:30.253Z,2.10
2023-03-14T12:29:00.507Z,2.30
2023-03-14T12:31:32.213Z,2.20
2023-03-14T12:34:24.218Z,2.40
2023-03-14T12:36:56.422Z,2.10
2023-03-14T12:39:33.872Z,2.30
2023-03-14T12:42:13.523Z,2.30
2023-03-14T12:44:49.047Z,1.80
2023-03-14T12:47:20.369Z,1.90
2023-03-14T12:49:54.413Z,1.70
2023-03-14T12:52:24.861Z,1.90
2023-03-14T12:55:10.845Z,1.80
2023-03-14T12:58:04.588Z,2.00
2023-03-14T13:00:35.755Z,2.10
2023-03-14T13:03:16.311Z,2.20
2023-03-14T13:06:01.769Z,2.20
2023-03-14T13:08:43.263Z,2.00
2023-03-14T13:11:21.276Z,2.00
2023-03-14T13:13:58.404Z,1.90
2023-03-14T13:16:26.734Z,2.10
2023-03-14T13:19:18.553Z,1.80
2023-03-14T13:24:25.455Z,2.00
2023-03-14T13:26:55.347Z,1.90
2023-03-14T13:29:28.350Z,1.80
2023-03-14T13:31:58.839Z,1.70
2023-03-14T13:34:31.046Z,2.00
2023-03-14T13:37:00.134Z,1.90
2023-03-14T13:39:30.304Z,2.30
2023-03-14T13:42:01.870Z,2.00
2023-03-14T13:44:33.818Z,2.30
2023-03-14T13:47:03.289Z,2.10
2023-03-14T13:49:33.644Z,1.80
2023-03-14T13:52:02.158Z,2.40
2023-03-14T13:54:30.780Z,2.00
2023-03-14T13:57:06.353Z,2.20
2023-03-14T13:59:35.410Z,2.10
2023-03-14T14:02:18.456Z,1.90
2023-03-14T14:04:47.207Z,1.90
2023-03-14T14:07:19.537Z,1.80
2023-03-14T14:09:52.703Z,1.70
2023-03-14T14:12:30.753Z,1.80
2023-03-14T14:15:03.700Z,2.00
2023-03-14T14:17:36.267Z,1.80
2023-03-14T14:20:22.068Z,1.70
2023-03-14T14:22:51.205Z,1.80
2023-03-14T14:25:19.607Z,1.80
2023-03-14T14:27:49.710Z,1.90
2023-03-14T14:30:18.207Z,1.80
2023-03-14T14:32:47.978Z,2.20
2023-03-14T14:35:33.645Z,1.70
2023-03-14T14:38:02.951Z,1.60
2023-03-14T14:40:31.989Z,1.60
2023-03-14T14:43:04.078Z,1.30
2023-03-14T14:45:34.776Z,1.40
2023-03-14T14:48:02.914Z,2.00
2023-03-14T14:50:32.364Z,1.90
2023-03-14T14:53:03.115Z,1.70
2023-03-14T14:55:40.883Z,2.10
2023-03-14T14:58:25.218Z,1.80
2023-03-14T15:01:06.520Z,2.20
2023-03-14T15:03:38.864Z,1.90
2023-03-14T15:06:07.079Z,1.60
2023-03-14T15:08:35.201Z,2.50
2023-03-14T15:11:03.464Z,1.60
2023-03-14T15:13:31.984Z,1.50
2023-03-14T15:16:00.440Z,1.80
2023-03-14T15:18:31.066Z,2.10
2023-03-14T15:20:59.772Z,2.00
2023-03-14T15:23:31.949Z,1.70
2023-03-14T15:26:00.171Z,1.80
2023-03-14T15:28:29.537Z,1.80
2023-03-14T15:30:59.020Z,2.10
2023-03-14T15:33:27.556Z,1.80
2023-03-14T15:35:58.549Z,2.00
2023-03-14T15:38:26.741Z,1.80
2023-03-14T15:40:55.744Z,1.40
2023-03-14T15:43:25.675Z,1.80
2023-03-14T15:45:54.846Z,2.10
2023-03-14T15:48:23.527Z,1.70
2023-03-14T15:50:51.720Z,1.60
2023-03-14T15:53:20.534Z,1.70
2023-03-14T15:55:48.783Z,2.10
2023-03-14T15:58:21.501Z,1.80
2023-03-14T16:03:19.302Z,1.70
2023-03-14T16:05:47.871Z,1.90
2023-03-14T16:08:16.076Z,1.90
2023-03-14T16:10:46.253Z,2.10
2023-03-14T16:13:14.826Z,2.40
2023-03-14T16:15:43.092Z,1.90
2023-03-14T16:18:21.301Z,1.50
2023-03-14T16:20:54.871Z,2.70
2023-03-14T16:23:23.221Z,2.00
2023-03-14T16:25:51.769Z,1.60
2023-03-14T16:28:20.072Z,2.00
2023-03-14T16:30:48.536Z,1.80
2023-03-14T16:33:17.347Z,1.60
2023-03-14T16:35:58.631Z,2.00
2023-03-14T16:38:31.748Z,1.70
2023-03-14T16:41:03.780Z,2.00
2023-03-14T16:43:34.107Z,2.20
2023-03-14T16:46:02.319Z,1.90
2023-03-14T16:48:39.494Z,2.00
2023-03-14T16:51:07.957Z,1.70
2023-03-14T16:53:36.164Z,1.80
2023-03-14T16:56:04.621Z,2.00
2023-03-14T16:58:33.081Z,1.90
2023-03-14T17:01:10.592Z,2.70
2023-03-14T17:03:44.158Z,2.30
2023-03-14T17:06:13.524Z,2.40
2023-03-14T17:08:44.303Z,2.30
2023-03-14T17:11:12.685Z,2.20
2023-03-14T17:13:40.934Z,2.60
2023-03-14T17:16:09.909Z,1.70
2023-03-14T17:18:38.444Z,2.10
2023-03-14T17:21:09.597Z,1.90
2023-03-14T17:23:41.240Z,1.60
2023-03-14T17:26:09.869Z,1.60
2023-03-14T17:28:38.733Z,1.90
2023-03-14T17:31:15.013Z,1.60
2023-03-14T17:33:44.527Z,2.00
2023-03-14T17:36:15.815Z,2.20
2023-03-14T17:38:44.257Z,3.70
2023-03-14T17:41:13.377Z,1.90
2023-03-14T17:43:42.227Z,2.20
2023-03-14T17:46:14.939Z,2.10
2023-03-14T17:48:45.707Z,2.60
2023-03-14T17:51:15.500Z,2.10
2023-03-14T17:53:45.520Z,2.40
2023-03-14T17:56:13.786Z,2.00
2023-03-14T17:58:44.398Z,2.10
2023-03-14T18:01:19.609Z,2.20
2023-03-14T18:03:49.785Z,2.30
2023-03-14T18:06:18.936Z,2.50
2023-03-14T18:08:47.532Z,2.60
2023-03-14T18:11:19.649Z,2.30
2023-03-14T18:13:49.248Z,2.50
2023-03-14T18:16:18.262Z,2.50
2023-03-14T18:18:50.656Z,2.30
2023-03-14T18:21:20.276Z,3.00
2023-03-14T18:23:52.634Z,2.70
2023-03-14T18:26:21.716Z,2.70
2023-03-14T18:28:50.198Z,3.20
2023-03-14T18:31:25.303Z,3.60
2023-03-14T18:33:57.966Z,3.10
2023-03-14T18:36:29.207Z,3.40
2023-03-14T18:38:57.503Z,3.40
2023-03-14T18:41:26.049Z,3.20
2023-03-14T18:43:55.088Z,2.70
2023-03-14T18:46:24.005Z,3.30
2023-03-14T18:48:58.572Z,2.80
2023-03-14T18:54:02.786Z,2.80
2023-03-14T18:56:38.074Z,3.10
2023-03-14T18:59:06.819Z,2.90
2023-03-14T19:01:37.198Z,2.60
2023-03-14T19:04:05.986Z,2.80
2023-03-14T19:06:35.828Z,2.90
2023-03-14T19:09:09.358Z,2.60
2023-03-14T19:11:38.112Z,3.30
2023-03-14T19:14:16.266Z,2.60
2023-03-14T19:16:48.083Z,2.70
2023-03-14T19:19:16.328Z,3.10
2023-03-14T19:21:45.436Z,2.80
2023-03-14T19:24:18.201Z,2.40
2023-03-14T19:26:46.448Z,3.00
2023-03-14T19:29:15.730Z,2.50
2023-03-14T19:31:44.331Z,2.60
2023-03-14T19:34:13.538Z,2.50
2023-03-14T19:36:44.044Z,2.90
2023-03-14T19:39:13.417Z,2.50
2023-03-14T19:41:42.068Z,2.60
2023-03-14T19:44:13.303Z,2.20
2023-03-14T19:46:42.423Z,2.70
2023-03-14T19:49:11.707Z,2.70
2023-03-14T19:51:40.126Z,2.80
2023-03-14T19:54:08.512Z,2.90
2023-03-14T19:56:39.412Z,3.10
2023-03-14T19:59:08.259Z,3.00
2023-03-14T20:01:36.628Z,4.10
2023-03-14T20:04:06.784Z,4.00
2023-03-14T20:06:35.083Z,4.80
2023-03-14T20:09:06.095Z,5.10
2023-03-14T20:11:41.268Z,5.60
2023-03-14T20:14:11.337Z,5.10
2023-03-14T20:16:41.924Z,5.40
2023-03-14T20:19:13.679Z,6.70
2023-03-14T20:21:43.078Z,6.00
2023-03-14T20:24:13.417Z,6.10
2023-03-14T20:26:42.035Z,5.70
2023-03-14T20:29:10.700Z,5.80
2023-03-14T20:31:40.453Z,6.20
2023-03-14T20:34:09.764Z,5.30
2023-03-14T20:36:38.618Z,5.60
2023-03-14T20:39:07.735Z,5.20
2023-03-14T20:41:42.153Z,5.40
2023-03-14T20:44:13.922Z,5.20
2023-03-14T20:46:43.806Z,4.50
2023-03-14T20:49:12.393Z,4.60
2023-03-14T20:51:41.668Z,4.90
2023-03-14T20:54:20.485Z,6.00
2023-03-14T20:56:49.126Z,4.80
2023-03-14T20:59:17.463Z,4.80
2023-03-14T21:04:33.845Z,5.60
2023-03-14T21:07:04.198Z,4.90
2023-03-14T21:09:33.735Z,5.10
2023-03-14T21:12:01.965Z,4.90
2023-03-14T21:14:30.170Z,5.20
2023-03-14T21:17:00.256Z,5.50
2023-03-14T21:19:31.717Z,6.10
2023-03-14T21:22:04.095Z,6.00
2023-03-14T21:24:34.606Z,5.60
2023-03-14T21:27:05.150Z,5.30
2023-03-14T21:29:37.241Z,5.90
2023-03-14T21:32:05.731Z,6.50
2023-03-14T21:34:40.511Z,6.10
2023-03-14T21:37:09.401Z,6.10
2023-03-14T21:39:37.552Z,5.70
2023-03-14T21:42:06.048Z,5.40
2023-03-14T21:44:37.252Z,6.40
2023-03-14T21:47:09.002Z,5.20
2023-03-14T21:49:44.969Z,6.20
2023-03-14T21:52:15.724Z,5.70
2023-03-14T21:54:43.820Z,5.20
2023-03-14T21:57:12.156Z,5.00
2023-03-14T21:59:42.631Z,5.10
2023-03-14T22:02:15.899Z,5.50
2023-03-14T22:04:46.714Z,5.30
2023-03-14T22:07:18.354Z,5.20
2023-03-14T22:09:47.129Z,5.20
2023-03-14T22:12:21.339Z,4.30
2023-03-14T22:14:49.630Z,5.60
2023-03-14T22:17:19.760Z,5.50
2023-03-14T22:19:48.203Z,5.10
2023-03-14T22:22:16.506Z,4.60
2023-03-14T22:24:44.676Z,4.90
2023-03-14T22:27:13.337Z,4.80
2023-03-14T22:29:41.608Z,4.30
2023-03-14T22:32:10.541Z,4.40
2023-03-14T22:34:40.222Z,4.50
2023-03-14T22:37:08.358Z,4.10
2023-03-14T22:39:36.595Z,3.90
2023-03-14T22:42:04.942Z,4.40
2023-03-14T22:44:34.540Z,4.50
2023-03-14T22:47:02.767Z,4.20
2023-03-14T22:49:31.257Z,3.80
2023-03-14T22:51:59.964Z,4.00
2023-03-14T22:54:28.065Z,4.10
2023-03-14T22:56:57.109Z,3.80
2023-03-14T22:59:25.387Z,3.60
2023-03-14T23:01:53.455Z,3.60
2023-03-14T23:04:21.685Z,3.70
2023-03-14T23:06:50.022Z,3.80
2023-03-14T23:09:27.945Z,3.60
2023-03-14T23:11:56.400Z,3.30
2023-03-14T23:14:24.640Z,3.10
2023-03-14T23:16:55.943Z,3.60
2023-03-14T23:19:25.842Z,3.20
2023-03-14T23:21:58.244Z,2.90
2023-03-14T23:24:26.376Z,3.50
2023-03-14T23:26:54.542Z,3.70
2023-03-14T23:29:24.899Z,3.40
2023-03-14T23:31:53.073Z,3.00
2023-03-14T23:34:22.445Z,3.10
2023-03-14T23:36:51.879Z,3.20
2023-03-14T23:39:19.906Z,4.20
2023-03-14T23:41:47.909Z,3.70
2023-03-14T23:44:16.271Z,3.30
2023-03-14T23:46:44.577Z,2.90
2023-03-14T23:49:13.300Z,3.60
2023-03-14T23:51:41.480Z,3.50
2023-03-14T23:54:10.428Z,3.40
2023-03-14T23:56:41.144Z,3.80
2023-03-14T23:59:10.830Z,3.60
